Terminal Aerodrome Forecast
Issued by NWS

Home | Current Version | Previous Version | Text Only | Print | Product List | Glossary On
Versions: 1 2 3 4 5 6 7 8 9 10 11 12 13 14 15 16 17 18 19 20 21 22 23
803
FTUS42 KJAX 170433 AAC
TAFCRG
TAF AMD
KCRG 170433Z 1705/1724 03012KT 5SM -RA BR SCT020 BKN035
      TEMPO 1705/1706 02017G27KT 2SM SHRA BR BKN007 OVC012
     FM170600 01012KT 6SM -SHRA BR BKN010 OVC015
     FM171400 03015G25KT P6SM VCSH SCT010 OVC015=

USA.gov is the U.S. government's official web portal to all federal, state and local government web resources and services.